»·PEaware :: HAL41 KDEN-KSFO

HAL41 :: KDEN-KSFO

FLIGHT INFORMATION

Flight Status: Arrived
Operator:
Hawaiian Airlines
More flights by this operator :: More flights under this callsign
Pilot: Matthew M. (8235)
Aircraft: Unknown
(B38M)
More flights by this aircraft type
Origin: KDEN Denver Intl
United States
Destination: KSFO San Francisco Intl
United States
More flights between these airports :: More routes between these airports
Route: COORZ5 VOAXA Q136 RUMPS OAL INYOE DYAMD5
File this flight plan on PilotEdge
Remarks:
Altitude:
(Current/Filed)
34,000ft
Speed:
(Current/Filed)
444kts
Departed: 07-Mar-20 11:12 AM
Arrived: 07-Mar-20 01:29 PM
Distance/Time
Traveled:
839nm/2:17
Distance/Time
To Go:
Arrived

Flight Plot

Page will automatically refresh every two minutes.

Flight plan parsing failed; only flown route is shown


Map Options




Map Legend


Flown Route
Filed Route
Departure Airport
Arrival Airport
Navaid (VOR, NDB)
Fix

Horizontal Profiles

Position Reports

Time Latitude Longitude Heading Altitude Ground
Speed
07-Mar-20 10:47 39.853405 -104.677548 27 5441ft 0kts
07-Mar-20 10:48 39.853405 -104.677548 27 5441ft 0kts
07-Mar-20 10:48 39.853405 -104.677548 27 5441ft 0kts
07-Mar-20 10:50 39.853405 -104.677548 27 5441ft 0kts
07-Mar-20 10:51 39.853405 -104.677548 27 5441ft 0kts
07-Mar-20 10:51 39.853405 -104.677548 27 5441ft 0kts
07-Mar-20 10:52 39.853405 -104.677548 27 5441ft 0kts
07-Mar-20 10:54 39.853405 -104.677548 27 5441ft 0kts
07-Mar-20 10:54 39.853405 -104.677548 27 5441ft 0kts
07-Mar-20 10:55 39.853405 -104.677548 27 5441ft 0kts
07-Mar-20 10:56 39.853405 -104.677548 27 5441ft 0kts
07-Mar-20 10:57 39.853405 -104.677548 27 5441ft 0kts
07-Mar-20 10:58 39.853405 -104.677548 27 5441ft 0kts
07-Mar-20 10:59 39.853405 -104.677548 27 5441ft 0kts
07-Mar-20 11:00 39.853405 -104.677548 27 5441ft 0kts
07-Mar-20 11:01 39.853405 -104.677548 27 5441ft 0kts
07-Mar-20 11:02 39.853231 -104.677669 25 5442ft 2kts
07-Mar-20 11:03 39.852797 -104.677323 273 5442ft 0kts
07-Mar-20 11:04 39.852798 -104.677228 269 5441ft 0kts
07-Mar-20 11:05 39.852798 -104.677347 270 5441ft 2kts
07-Mar-20 11:06 39.852834 -104.680532 270 5441ft 8kts
07-Mar-20 11:07 39.853073 -104.683766 257 5441ft 17kts
07-Mar-20 11:08 39.849022 -104.684117 178 5441ft 21kts
07-Mar-20 11:09 39.842648 -104.684163 181 5442ft 18kts
07-Mar-20 11:10 39.841157 -104.684154 178 5441ft 3kts
07-Mar-20 11:11 39.840689 -104.690132 270 5442ft 85kts
07-Mar-20 11:12 39.840847 -104.742017 271 6570ft 172kts
07-Mar-20 11:13 39.865423 -104.807809 301 7166ft 248kts
07-Mar-20 11:14 39.903410 -104.887634 301 9146ft 282kts
07-Mar-20 11:15 39.939410 -104.978038 283 10678ft 325kts
07-Mar-20 11:16 39.934364 -105.098048 261 11740ft 373kts
07-Mar-20 11:17 39.918612 -105.231068 261 14123ft 385kts
07-Mar-20 11:18 39.902817 -105.366854 261 16630ft 397kts
07-Mar-20 11:19 39.886300 -105.509109 261 19172ft 407kts
07-Mar-20 11:20 39.870101 -105.645047 261 21388ft 417kts
07-Mar-20 11:21 39.854524 -105.787329 263 23175ft 431kts
07-Mar-20 11:22 39.841059 -105.943468 263 23202ft 428kts
07-Mar-20 11:23 39.827648 -106.096746 263 24785ft 439kts
07-Mar-20 11:24 39.813917 -106.251746 263 26593ft 450kts
07-Mar-20 11:25 39.800438 -106.399966 263 28707ft 446kts
07-Mar-20 11:26 39.786905 -106.548829 262 30734ft 441kts
07-Mar-20 11:27 39.771205 -106.695456 261 32553ft 436kts
07-Mar-20 11:28 39.755313 -106.838740 261 33601ft 446kts
07-Mar-20 11:29 39.739109 -106.984451 262 34191ft 444kts
07-Mar-20 11:30 39.723416 -107.124132 262 34194ft 441kts
07-Mar-20 11:31 39.708516 -107.255501 262 34189ft 441kts
07-Mar-20 11:32 39.692668 -107.393900 262 34166ft 441kts
07-Mar-20 11:33 39.676787 -107.531242 262 34137ft 441kts
07-Mar-20 11:34 39.660100 -107.674332 261 34142ft 443kts
07-Mar-20 11:35 39.641827 -107.827921 261 34138ft 440kts
07-Mar-20 11:36 39.623123 -107.983429 261 34138ft 441kts
07-Mar-20 11:37 39.604342 -108.138922 261 34122ft 441kts
07-Mar-20 11:38 39.586095 -108.287804 261 34104ft 440kts
07-Mar-20 11:39 39.567907 -108.434736 261 34089ft 442kts
07-Mar-20 11:40 39.549403 -108.582805 261 34088ft 442kts
07-Mar-20 11:41 39.533628 -108.707541 260 34091ft 442kts
07-Mar-20 11:42 39.515996 -108.844832 260 34091ft 441kts
07-Mar-20 11:43 39.498402 -108.981023 260 34095ft 441kts
07-Mar-20 11:44 39.480739 -109.116570 259 34090ft 437kts
07-Mar-20 11:45 39.463169 -109.250188 258 34083ft 439kts
07-Mar-20 11:46 39.445448 -109.383780 258 34057ft 439kts
07-Mar-20 11:47 39.427375 -109.518879 258 34042ft 439kts
07-Mar-20 11:48 39.409107 -109.654259 257 34041ft 438kts
07-Mar-20 11:49 39.389952 -109.794357 257 34046ft 438kts
07-Mar-20 11:50 39.370276 -109.936992 257 34045ft 438kts
07-Mar-20 11:51 39.350689 -110.081832 257 34074ft 438kts
07-Mar-20 11:52 39.331671 -110.223205 257 34090ft 438kts
07-Mar-20 11:53 39.312369 -110.365434 257 34093ft 437kts
07-Mar-20 11:54 39.293138 -110.505891 257 34096ft 438kts
07-Mar-20 11:55 39.273536 -110.647810 257 34095ft 438kts
07-Mar-20 11:56 39.255223 -110.778701 257 34100ft 437kts
07-Mar-20 11:57 39.235300 -110.919857 257 34099ft 437kts
07-Mar-20 11:58 39.215472 -111.059395 255 34097ft 431kts
07-Mar-20 11:59 39.195657 -111.197689 255 34096ft 429kts
07-Mar-20 12:00 39.175794 -111.335147 255 34094ft 429kts
07-Mar-20 12:01 39.154873 -111.478778 255 34041ft 429kts
07-Mar-20 12:02 39.132864 -111.628570 255 33965ft 430kts
07-Mar-20 12:03 39.110922 -111.775975 254 33970ft 430kts
07-Mar-20 12:04 39.089055 -111.921511 254 33968ft 429kts
07-Mar-20 12:05 39.067202 -112.065821 254 33967ft 429kts
07-Mar-20 12:06 39.045090 -112.210746 254 33965ft 429kts
07-Mar-20 12:07 39.022843 -112.355382 254 33964ft 430kts
07-Mar-20 12:08 38.999887 -112.503354 254 33963ft 431kts
07-Mar-20 12:09 38.977856 -112.644190 254 33934ft 433kts
07-Mar-20 12:10 38.955633 -112.784540 254 33940ft 432kts
07-Mar-20 12:11 38.932148 -112.931561 253 33938ft 438kts
07-Mar-20 12:12 38.907790 -113.082886 253 33937ft 443kts
07-Mar-20 12:13 38.885615 -113.219714 253 33948ft 444kts
07-Mar-20 12:14 38.862734 -113.359871 253 33947ft 444kts
07-Mar-20 12:15 38.839549 -113.500859 253 33946ft 444kts
07-Mar-20 12:16 38.815242 -113.647511 253 33945ft 444kts
07-Mar-20 12:17 38.790438 -113.795524 253 33948ft 444kts
07-Mar-20 12:18 38.765050 -113.945763 253 33936ft 444kts
07-Mar-20 12:19 38.740267 -114.091317 253 33929ft 443kts
07-Mar-20 12:20 38.714834 -114.239577 253 33928ft 443kts
07-Mar-20 12:21 38.689426 -114.386588 253 33927ft 444kts
07-Mar-20 12:22 38.664047 -114.532347 253 33926ft 443kts
07-Mar-20 12:23 38.639090 -114.674606 252 33929ft 443kts
07-Mar-20 12:24 38.612674 -114.823576 252 33928ft 443kts
07-Mar-20 12:25 38.586318 -114.971147 252 33928ft 443kts
07-Mar-20 12:26 38.559769 -115.118797 252 33926ft 440kts
07-Mar-20 12:27 38.533287 -115.264980 252 33926ft 439kts
07-Mar-20 12:28 38.506853 -115.409848 252 33924ft 438kts
07-Mar-20 12:29 38.479458 -115.558918 252 33923ft 438kts
07-Mar-20 12:30 38.452347 -115.705252 251 33926ft 438kts
07-Mar-20 12:31 38.424431 -115.854419 251 33909ft 438kts
07-Mar-20 12:32 38.395275 -116.009163 251 33898ft 438kts
07-Mar-20 12:33 38.366071 -116.163097 251 33897ft 438kts
07-Mar-20 12:34 38.336579 -116.317441 251 33895ft 438kts
07-Mar-20 12:35 38.303280 -116.470765 249 33894ft 437kts
07-Mar-20 12:36 38.268739 -116.623243 249 33893ft 437kts
07-Mar-20 12:37 38.237341 -116.760967 248 33897ft 437kts
07-Mar-20 12:38 38.202970 -116.910941 248 33896ft 436kts
07-Mar-20 12:39 38.167765 -117.063718 248 33894ft 440kts
07-Mar-20 12:40 38.132485 -117.216011 248 33893ft 440kts
07-Mar-20 12:42 38.097205 -117.368393 248 33892ft 439kts
07-Mar-20 12:43 38.063079 -117.515730 248 33891ft 440kts
07-Mar-20 12:44 38.029807 -117.658539 248 33888ft 440kts
07-Mar-20 12:45 37.998872 -117.805188 255 33873ft 446kts
07-Mar-20 12:46 37.983629 -117.953742 256 33845ft 446kts
07-Mar-20 12:47 37.967843 -118.103894 256 33828ft 447kts
07-Mar-20 12:48 37.952207 -118.250204 256 33837ft 447kts
07-Mar-20 12:49 37.936535 -118.394956 256 33851ft 446kts
07-Mar-20 12:50 37.921257 -118.534424 256 33891ft 446kts
07-Mar-20 12:51 37.906839 -118.664601 255 33909ft 446kts
07-Mar-20 12:52 37.893117 -118.786734 256 33923ft 445kts
07-Mar-20 12:53 37.880323 -118.899813 255 33923ft 437kts
07-Mar-20 12:54 37.866074 -119.024997 255 33923ft 424kts
07-Mar-20 12:55 37.851228 -119.153831 255 33922ft 423kts
07-Mar-20 12:56 37.836398 -119.281236 255 33923ft 423kts
07-Mar-20 12:57 37.821073 -119.411834 255 33921ft 423kts
07-Mar-20 12:58 37.805733 -119.541428 255 33918ft 422kts
07-Mar-20 12:59 37.791253 -119.662690 254 33998ft 422kts
07-Mar-20 13:00 37.775154 -119.795214 254 34074ft 422kts
07-Mar-20 13:01 37.758843 -119.928318 254 34074ft 422kts
07-Mar-20 13:02 37.741243 -120.070862 254 34069ft 421kts
07-Mar-20 13:02 37.726371 -120.190699 254 34070ft 409kts
07-Mar-20 13:04 37.705453 -120.356995 254 32164ft 412kts
07-Mar-20 13:04 37.691898 -120.468366 255 29627ft 421kts
07-Mar-20 13:05 37.677647 -120.590402 255 27343ft 437kts
07-Mar-20 13:07 37.661344 -120.728399 255 25392ft 445kts
07-Mar-20 13:07 37.649818 -120.825126 255 23728ft 433kts
07-Mar-20 13:08 37.635469 -120.944392 255 21552ft 418kts
07-Mar-20 13:09 37.620007 -121.063876 256 19386ft 383kts
07-Mar-20 13:10 37.605447 -121.172780 257 17430ft 348kts
07-Mar-20 13:11 37.591680 -121.275429 258 15584ft 324kts
07-Mar-20 13:12 37.580021 -121.375980 259 13821ft 327kts
07-Mar-20 13:13 37.567962 -121.480012 259 11982ft 333kts
07-Mar-20 13:14 37.555695 -121.585208 259 10498ft 324kts
07-Mar-20 13:15 37.539480 -121.679537 250 9523ft 307kts
07-Mar-20 13:16 37.519320 -121.761294 250 8449ft 302kts
07-Mar-20 13:17 37.499869 -121.841296 250 7410ft 286kts
07-Mar-20 13:18 37.480680 -121.917166 248 6663ft 255kts
07-Mar-20 13:19 37.469712 -121.989920 260 6167ft 230kts
07-Mar-20 13:20 37.487111 -122.061124 293 5024ft 229kts
07-Mar-20 13:21 37.510925 -122.119261 295 4328ft 199kts
07-Mar-20 13:22 37.534758 -122.175723 295 3312ft 172kts
07-Mar-20 13:23 37.555413 -122.224658 296 2438ft 163kts
07-Mar-20 13:24 37.573309 -122.267056 296 1669ft 140kts
07-Mar-20 13:25 37.589962 -122.306644 296 980ft 139kts
07-Mar-20 13:26 37.604403 -122.340986 296 383ft 138kts
07-Mar-20 13:27 37.617569 -122.372233 296 19ft 42kts
07-Mar-20 13:28 37.619161 -122.379900 210 19ft 14kts
07-Mar-20 13:29 37.614269 -122.381276 209 19ft 26kts
07-Mar-20 13:30 37.610558 -122.386615 298 19ft 19kts
07-Mar-20 13:31 37.611018 -122.389549 340 19ft 0kts

Navigation Log

Ident Type
Flight plan parsing failed, navigation log unavailable